createdAt,value
2022-10-29T00:00:20.604Z,101819.56
2022-10-29T00:03:24.361Z,101816.31
2022-10-29T00:06:28.429Z,101825.28
2022-10-29T00:09:32.593Z,101823.91
2022-10-29T00:12:35.458Z,101825.81
2022-10-29T00:15:41.032Z,101824.75
2022-10-29T00:18:45.080Z,101830.19
2022-10-29T00:21:50.277Z,101831.56
2022-10-29T00:24:52.822Z,101834.28
2022-10-29T00:27:56.674Z,101836.44
2022-10-29T00:31:09.778Z,101827.72
2022-10-29T00:34:14.160Z,101826.91
2022-10-29T00:37:17.206Z,101819.03
2022-10-29T00:40:20.844Z,101828.56
2022-10-29T00:43:26.015Z,101822.59
2022-10-29T00:46:35.490Z,101820.41
2022-10-29T00:49:39.717Z,101817.66
2022-10-29T00:52:47.845Z,101817.41
2022-10-29T00:55:50.804Z,101816.31
2022-10-29T00:58:53.919Z,101813.06
2022-10-29T01:01:58.307Z,101807.09
2022-10-29T01:05:03.991Z,101805.19
2022-10-29T01:08:06.836Z,101794.28
2022-10-29T01:11:15.078Z,101795.09
2022-10-29T01:14:38.337Z,101783.97
2022-10-29T01:18:02.108Z,101779.88
2022-10-29T01:21:29.383Z,101771.72
2022-10-29T01:24:52.037Z,101765.16
2022-10-29T01:28:03.785Z,101776.59
2022-10-29T01:31:36.448Z,101768.16
2022-10-29T01:35:03.432Z,101765.19
2022-10-29T01:38:36.717Z,101766.78
2022-10-29T01:41:46.105Z,101773.34
2022-10-29T01:45:07.464Z,101755.66
2022-10-29T01:48:14.263Z,101754.03
2022-10-29T01:51:23.324Z,101754.84
2022-10-29T01:54:26.765Z,101743.41
2022-10-29T01:57:35.589Z,101748.31
2022-10-29T02:01:10.982Z,101752.38
2022-10-29T02:04:47.300Z,101750.47
2022-10-29T02:07:58.111Z,101748.31
2022-10-29T02:11:27.411Z,101745.03
2022-10-29T02:14:39.339Z,101754.00
2022-10-29T02:17:42.092Z,101754.28
2022-10-29T02:20:46.400Z,101745.59
2022-10-29T02:23:50.435Z,101752.94
2022-10-29T02:26:53.795Z,101754.31
2022-10-29T02:29:57.274Z,101752.41
2022-10-29T02:32:59.946Z,101749.13
2022-10-29T02:36:02.907Z,101749.13
2022-10-29T02:39:12.340Z,101742.84
2022-10-29T02:42:14.917Z,101747.50
2022-10-29T02:45:18.294Z,101745.31
2022-10-29T02:48:20.957Z,101737.69
2022-10-29T02:51:24.356Z,101743.13
2022-10-29T02:54:27.411Z,101745.06
2022-10-29T02:57:30.841Z,101740.69
2022-10-29T03:00:34.333Z,101739.88
2022-10-29T03:03:37.008Z,101742.88
2022-10-29T03:06:39.504Z,101742.59
2022-10-29T03:09:41.945Z,101746.41
2022-10-29T03:12:45.361Z,101746.16
2022-10-29T03:15:47.781Z,101744.50
2022-10-29T03:18:50.842Z,101737.97
2022-10-29T03:21:53.302Z,101743.41
2022-10-29T03:24:55.719Z,101727.91
2022-10-29T03:27:58.310Z,101733.06
2022-10-29T03:31:02.150Z,101731.41
2022-10-29T03:34:04.631Z,101723.81
2022-10-29T03:37:07.858Z,101725.19
2022-10-29T03:40:10.836Z,101733.09
2022-10-29T03:43:13.340Z,101730.88
2022-10-29T03:46:16.364Z,101732.50
2022-10-29T03:49:19.908Z,101733.09
2022-10-29T03:52:23.396Z,101732.56
2022-10-29T03:55:29.191Z,101723.84
2022-10-29T03:58:31.645Z,101727.41
2022-10-29T04:01:35.016Z,101730.09
2022-10-29T04:04:37.784Z,101736.09
2022-10-29T04:07:40.935Z,101734.19
2022-10-29T04:10:50.943Z,101726.03
2022-10-29T04:13:53.838Z,101736.91
2022-10-29T04:16:58.552Z,101740.72
2022-10-29T04:20:01.264Z,101744.25
2022-10-29T04:24:56.039Z,101741.81
2022-10-29T04:29:52.893Z,101731.47
2022-10-29T04:33:00.085Z,101734.75
2022-10-29T04:36:04.279Z,101742.34
2022-10-29T04:39:06.832Z,101735.81
2022-10-29T04:42:09.962Z,101738.25
2022-10-29T04:45:13.650Z,101740.97
2022-10-29T04:48:16.142Z,101737.44
2022-10-29T04:51:28.864Z,101735.00
2022-10-29T04:54:31.338Z,101733.63
2022-10-29T04:57:34.527Z,101732.81
2022-10-29T05:00:37.654Z,101733.09
2022-10-29T05:03:40.962Z,101735.25
2022-10-29T05:06:43.995Z,101740.16
2022-10-29T05:09:46.458Z,101742.34
2022-10-29T05:12:56.958Z,101738.78
2022-10-29T05:15:59.966Z,101739.09
2022-10-29T05:19:03.833Z,101732.00
2022-10-29T05:22:07.013Z,101725.19
2022-10-29T05:25:09.612Z,101727.13
2022-10-29T05:28:15.864Z,101734.16
2022-10-29T05:31:18.951Z,101731.44
2022-10-29T05:34:21.655Z,101729.00
2022-10-29T05:37:25.954Z,101727.94
2022-10-29T05:40:30.581Z,101741.25
2022-10-29T05:43:33.184Z,101745.88
2022-10-29T05:46:36.613Z,101755.66
2022-10-29T05:49:40.051Z,101741.53
2022-10-29T05:52:43.096Z,101739.09
2022-10-29T05:55:46.552Z,101729.84
2022-10-29T05:58:50.559Z,101729.81
2022-10-29T06:01:53.625Z,101721.94
2022-10-29T06:04:57.061Z,101721.13
2022-10-29T06:08:01.223Z,101705.09
2022-10-29T06:11:05.261Z,101715.41
2022-10-29T06:14:08.642Z,101724.38
2022-10-29T06:17:11.151Z,101729.28
2022-10-29T06:20:16.647Z,101733.91
2022-10-29T06:23:19.260Z,101736.34
2022-10-29T06:26:22.865Z,101736.63
2022-10-29T06:29:25.781Z,101742.59
2022-10-29T06:32:29.118Z,101751.03
2022-10-29T06:38:41.116Z,101740.72
2022-10-29T06:41:43.674Z,101741.53
2022-10-29T06:44:52.307Z,101733.91
2022-10-29T06:47:55.225Z,101734.16
2022-10-29T06:51:00.311Z,101736.91
2022-10-29T06:54:03.798Z,101737.47
2022-10-29T06:57:06.353Z,101732.03
2022-10-29T07:00:10.427Z,101729.00
2022-10-29T07:03:17.255Z,101729.84
2022-10-29T07:06:19.825Z,101732.56
2022-10-29T07:09:23.158Z,101737.44
2022-10-29T07:12:26.122Z,101748.59
2022-10-29T07:15:31.135Z,101747.53
2022-10-29T07:18:34.344Z,101760.81
2022-10-29T07:21:36.901Z,101777.66
2022-10-29T07:24:40.145Z,101778.78
2022-10-29T07:27:42.699Z,101789.38
2022-10-29T07:30:45.346Z,101779.06
2022-10-29T07:33:47.780Z,101772.53
2022-10-29T07:36:50.269Z,101770.34
2022-10-29T07:39:53.802Z,101770.09
2022-10-29T07:42:57.473Z,101767.09
2022-10-29T07:46:00.141Z,101762.75
2022-10-29T07:49:02.737Z,101768.44
2022-10-29T07:52:06.204Z,101763.28
2022-10-29T07:55:09.284Z,101759.22
2022-10-29T07:58:12.866Z,101754.56
2022-10-29T08:01:16.340Z,101751.03
2022-10-29T08:04:19.020Z,101752.13
2022-10-29T08:07:21.548Z,101756.47
2022-10-29T08:10:26.673Z,101760.56
2022-10-29T08:13:31.044Z,101743.97
2022-10-29T08:16:33.637Z,101753.50
2022-10-29T08:19:36.141Z,101763.56
2022-10-29T08:22:38.679Z,101767.63
2022-10-29T08:25:43.017Z,101761.66
2022-10-29T08:28:45.775Z,101766.53
2022-10-29T08:31:49.239Z,101775.78
2022-10-29T08:34:51.741Z,101767.09
2022-10-29T08:37:55.336Z,101761.38
2022-10-29T08:41:28.473Z,101761.38
2022-10-29T08:44:52.638Z,101753.22
2022-10-29T08:48:07.267Z,101741.81
2022-10-29T08:51:20.741Z,101745.06
2022-10-29T08:54:32.200Z,101742.88
2022-10-29T08:57:42.163Z,101742.84
2022-10-29T09:00:45.558Z,101741.72
2022-10-29T09:03:49.080Z,101752.63
2022-10-29T09:07:24.460Z,101746.34
2022-10-29T09:10:52.988Z,101736.31
2022-10-29T09:14:07.255Z,101749.94
2022-10-29T09:17:58.426Z,101749.91
2022-10-29T09:21:15.673Z,101745.56
2022-10-29T09:24:42.173Z,101745.84
2022-10-29T09:27:53.804Z,101745.00
2022-10-29T09:31:14.837Z,101749.31
2022-10-29T09:34:41.454Z,101746.28
2022-10-29T09:37:44.839Z,101745.19
2022-10-29T09:40:47.558Z,101736.25
2022-10-29T09:44:00.037Z,101731.09
2022-10-29T09:47:35.215Z,101735.75
2022-10-29T09:50:57.937Z,101733.56
2022-10-29T09:54:00.643Z,101735.19
2022-10-29T09:57:04.780Z,101725.97
2022-10-29T10:00:17.513Z,101728.16
2022-10-29T10:03:23.816Z,101728.19
2022-10-29T10:06:26.816Z,101727.06
2022-10-29T10:09:29.349Z,101717.25
2022-10-29T10:12:38.090Z,101722.41
2022-10-29T10:15:50.893Z,101719.88
2022-10-29T10:18:54.014Z,101712.22
2022-10-29T10:22:04.635Z,101706.53
2022-10-29T10:25:32.140Z,101710.59
2022-10-29T10:28:35.482Z,101697.88
2022-10-29T10:31:40.556Z,101707.94
2022-10-29T10:34:43.319Z,101711.22
2022-10-29T10:37:46.490Z,101707.38
2022-10-29T10:40:57.613Z,101709.25
2022-10-29T10:44:03.396Z,101691.81
2022-10-29T10:47:07.411Z,101695.91
2022-10-29T10:50:13.659Z,101693.38
2022-10-29T10:53:19.990Z,101690.84
2022-10-29T10:56:22.890Z,101679.38
2022-10-29T10:59:38.922Z,101675.22
2022-10-29T11:03:16.894Z,101680.09
2022-10-29T11:06:40.652Z,101666.63
2022-10-29T11:09:48.973Z,101672.84
2022-10-29T11:12:56.742Z,101667.16
2022-10-29T11:16:33.063Z,101660.06
2022-10-29T11:19:45.070Z,101665.41
2022-10-29T11:23:23.816Z,101666.56
2022-10-29T11:26:35.834Z,101663.91
2022-10-29T11:29:49.061Z,101659.59
2022-10-29T11:33:11.560Z,101654.13
2022-10-29T11:36:22.559Z,101651.50
2022-10-29T11:39:43.825Z,101651.09
2022-10-29T11:42:46.368Z,101649.50
2022-10-29T11:45:58.388Z,101640.84
2022-10-29T11:49:18.934Z,101634.91
2022-10-29T11:52:21.943Z,101636.56
2022-10-29T11:55:48.629Z,101631.91
2022-10-29T11:59:07.009Z,101630.28
2022-10-29T12:02:37.418Z,101636.50
2022-10-29T12:06:17.159Z,101628.56
2022-10-29T12:09:39.975Z,101623.75
2022-10-29T12:12:55.745Z,101621.25
2022-10-29T12:16:01.850Z,101611.69
2022-10-29T12:19:37.662Z,101610.31
2022-10-29T12:22:50.380Z,101613.75
2022-10-29T12:26:09.116Z,101607.03
2022-10-29T12:29:19.306Z,101597.97
2022-10-29T12:32:25.519Z,101588.97
2022-10-29T12:36:09.045Z,101583.38
2022-10-29T12:39:26.031Z,101578.50
2022-10-29T12:42:32.377Z,101578.16
2022-10-29T12:46:14.436Z,101580.81
2022-10-29T12:49:32.816Z,101565.34
2022-10-29T12:52:52.722Z,101568.22
2022-10-29T12:55:57.811Z,101576.41
2022-10-29T12:59:30.650Z,101571.66
2022-10-29T13:02:36.249Z,101577.59
2022-10-29T13:05:42.530Z,101567.97
2022-10-29T13:08:56.546Z,101575.53
2022-10-29T13:12:13.449Z,101571.09
2022-10-29T13:15:16.943Z,101575.25
2022-10-29T13:18:29.100Z,101561.13
2022-10-29T13:22:06.573Z,101577.06
2022-10-29T13:25:34.116Z,101578.03
2022-10-29T13:28:36.586Z,101570.69
2022-10-29T13:31:45.648Z,101567.91
2022-10-29T13:34:56.804Z,101566.31
2022-10-29T13:38:16.102Z,101566.16
2022-10-29T13:41:28.094Z,101564.19
2022-10-29T13:44:32.194Z,101566.25
2022-10-29T13:47:36.032Z,101564.25
2022-10-29T13:50:40.670Z,101559.75
2022-10-29T13:54:00.032Z,101558.63
2022-10-29T13:57:10.186Z,101564.66
2022-10-29T14:00:19.369Z,101558.59
2022-10-29T14:03:36.437Z,101542.09
2022-10-29T14:06:40.097Z,101544.16
2022-10-29T14:09:47.215Z,101529.97
2022-10-29T14:12:56.686Z,101535.69
2022-10-29T14:16:10.118Z,101549.63
2022-10-29T14:19:21.007Z,101535.72
2022-10-29T14:22:33.468Z,101553.38
2022-10-29T14:25:37.051Z,101541.97
2022-10-29T14:28:39.998Z,101556.72
2022-10-29T14:31:42.491Z,101550.16
2022-10-29T14:34:50.242Z,101555.41
2022-10-29T14:37:56.918Z,101552.59
2022-10-29T14:41:00.207Z,101549.56
2022-10-29T14:44:09.469Z,101541.75
2022-10-29T14:47:38.945Z,101539.59
2022-10-29T14:50:47.440Z,101552.13
2022-10-29T14:54:02.375Z,101548.00
2022-10-29T14:57:12.355Z,101543.66
2022-10-29T15:00:30.414Z,101546.97
2022-10-29T15:03:35.313Z,101543.13
2022-10-29T15:06:39.810Z,101540.66
2022-10-29T15:09:45.085Z,101536.06
2022-10-29T15:12:48.664Z,101533.91
2022-10-29T15:16:20.107Z,101526.31
2022-10-29T15:19:23.981Z,101525.03
2022-10-29T15:22:39.620Z,101510.59
2022-10-29T15:25:45.596Z,101515.00
2022-10-29T15:28:51.442Z,101517.91
2022-10-29T15:31:56.627Z,101521.97
2022-10-29T15:35:00.396Z,101524.69
2022-10-29T15:38:04.011Z,101523.00
2022-10-29T15:41:12.760Z,101522.81
2022-10-29T15:44:30.957Z,101521.78
2022-10-29T15:47:38.556Z,101517.66
2022-10-29T15:50:45.891Z,101514.31
2022-10-29T15:53:49.527Z,101520.38
2022-10-29T15:56:53.132Z,101532.34
2022-10-29T15:59:57.411Z,101548.97
2022-10-29T16:03:32.075Z,101555.75
2022-10-29T16:06:37.213Z,101541.38
2022-10-29T16:09:55.080Z,101528.00
2022-10-29T16:12:59.427Z,101533.72
2022-10-29T16:16:02.985Z,101534.25
2022-10-29T16:19:06.979Z,101535.66
2022-10-29T16:22:16.240Z,101534.53
2022-10-29T16:25:26.804Z,101538.59
2022-10-29T16:28:30.077Z,101534.53
2022-10-29T16:31:32.594Z,101520.44
2022-10-29T16:34:35.857Z,101519.88
2022-10-29T16:37:39.410Z,101516.63
2022-10-29T16:40:42.886Z,101519.06
2022-10-29T16:43:46.093Z,101522.66
2022-10-29T16:46:48.614Z,101520.22
2022-10-29T16:49:51.924Z,101529.50
2022-10-29T16:53:06.591Z,101533.59
2022-10-29T16:56:09.533Z,101529.28
2022-10-29T16:59:12.868Z,101525.81
2022-10-29T17:02:16.661Z,101520.63
2022-10-29T17:05:19.999Z,101517.66
2022-10-29T17:08:22.789Z,101525.88
2022-10-29T17:11:26.671Z,101529.44
2022-10-29T17:14:29.922Z,101528.38
2022-10-29T17:17:33.426Z,101536.00
2022-10-29T17:20:36.076Z,101528.91
2022-10-29T17:23:38.759Z,101513.13
2022-10-29T17:26:41.647Z,101500.81
2022-10-29T17:29:44.927Z,101503.25
2022-10-29T17:32:47.523Z,101509.78
2022-10-29T17:35:50.192Z,101513.09
2022-10-29T17:38:52.833Z,101507.94
2022-10-29T17:41:56.597Z,101503.38
2022-10-29T17:44:59.913Z,101507.72
2022-10-29T17:48:02.735Z,101514.81
2022-10-29T17:51:06.641Z,101529.72
2022-10-29T17:54:12.253Z,101530.22
2022-10-29T17:57:16.057Z,101521.50
2022-10-29T18:00:19.152Z,101511.47
2022-10-29T18:03:26.988Z,101512.03
2022-10-29T18:06:30.844Z,101515.28
2022-10-29T18:09:33.659Z,101515.53
2022-10-29T18:12:36.984Z,101519.81
2022-10-29T18:15:40.488Z,101530.47
2022-10-29T18:19:00.667Z,101524.50
2022-10-29T18:22:04.961Z,101510.91
2022-10-29T18:25:08.140Z,101513.84
2022-10-29T18:28:11.571Z,101513.31
2022-10-29T18:31:15.077Z,101519.34
2022-10-29T18:34:17.893Z,101526.09
2022-10-29T18:37:21.514Z,101530.16
2022-10-29T18:40:25.581Z,101526.69
2022-10-29T18:43:28.456Z,101523.44
2022-10-29T18:46:31.240Z,101516.00
2022-10-29T18:49:35.019Z,101510.03
2022-10-29T18:52:37.831Z,101508.44
2022-10-29T18:55:48.335Z,101499.72
2022-10-29T18:58:51.604Z,101495.03
2022-10-29T19:01:55.121Z,101481.72
2022-10-29T19:04:58.486Z,101487.22
2022-10-29T19:08:02.452Z,101482.63
2022-10-29T19:11:09.460Z,101478.50
2022-10-29T19:14:14.436Z,101483.66
2022-10-29T19:17:17.084Z,101487.78
2022-10-29T19:20:20.537Z,101480.94
2022-10-29T19:23:24.633Z,101478.47
2022-10-29T19:26:30.453Z,101479.81
2022-10-29T19:29:34.062Z,101480.09
2022-10-29T19:32:37.615Z,101472.78
2022-10-29T19:35:41.112Z,101473.03
2022-10-29T19:38:44.737Z,101479.75
2022-10-29T19:41:48.156Z,101471.69
2022-10-29T19:44:55.373Z,101464.09
2022-10-29T19:48:00.240Z,101475.75
2022-10-29T19:51:03.360Z,101474.31
2022-10-29T19:54:08.152Z,101459.94
2022-10-29T19:57:12.216Z,101460.84
2022-10-29T20:00:17.755Z,101464.38
2022-10-29T20:03:21.097Z,101458.13
2022-10-29T20:06:24.335Z,101461.88
2022-10-29T20:09:30.421Z,101459.38
2022-10-29T20:12:34.197Z,101462.28
2022-10-29T20:15:40.180Z,101465.88
2022-10-29T20:18:43.280Z,101459.94
2022-10-29T20:21:46.634Z,101463.94
2022-10-29T20:24:49.345Z,101459.59
2022-10-29T20:27:52.413Z,101459.28
2022-10-29T20:31:16.535Z,101461.72
2022-10-29T20:34:20.212Z,101464.25
2022-10-29T20:37:23.697Z,101462.28
2022-10-29T20:40:27.137Z,101471.78
2022-10-29T20:43:29.814Z,101468.25
2022-10-29T20:46:33.392Z,101471.53
2022-10-29T20:49:35.913Z,101476.38
2022-10-29T20:52:41.276Z,101476.09
2022-10-29T20:55:51.561Z,101466.84
2022-10-29T20:58:54.701Z,101477.19
2022-10-29T21:01:58.614Z,101471.19
2022-10-29T21:05:01.706Z,101462.50
2022-10-29T21:08:04.266Z,101464.19
2022-10-29T21:11:10.852Z,101470.72
2022-10-29T21:14:14.307Z,101461.44
2022-10-29T21:17:17.744Z,101468.53
2022-10-29T21:20:20.286Z,101477.50
2022-10-29T21:23:24.046Z,101471.78
2022-10-29T21:26:28.301Z,101475.91
2022-10-29T21:29:31.750Z,101475.66
2022-10-29T21:32:34.254Z,101479.19
2022-10-29T21:35:36.868Z,101465.56
2022-10-29T21:38:39.416Z,101473.78
2022-10-29T21:41:42.845Z,101474.84
2022-10-29T21:44:45.314Z,101472.34
2022-10-29T21:47:49.747Z,101480.00
2022-10-29T21:51:02.046Z,101475.94
2022-10-29T21:54:04.665Z,101474.56
2022-10-29T21:57:07.742Z,101473.78
2022-10-29T22:00:13.618Z,101466.44
2022-10-29T22:03:16.772Z,101465.34
2022-10-29T22:06:21.340Z,101468.72
2022-10-29T22:09:24.801Z,101457.78
2022-10-29T22:12:27.498Z,101452.81
2022-10-29T22:15:30.766Z,101456.34
2022-10-29T22:18:34.000Z,101452.06
2022-10-29T22:21:36.459Z,101460.84
2022-10-29T22:24:39.825Z,101462.19
2022-10-29T22:27:42.337Z,101455.06
2022-10-29T22:30:44.886Z,101450.09
2022-10-29T22:33:48.557Z,101447.72
2022-10-29T22:36:52.835Z,101451.28
2022-10-29T22:39:55.232Z,101444.50
2022-10-29T22:42:58.645Z,101434.94
2022-10-29T22:46:01.390Z,101430.00
2022-10-29T22:49:03.953Z,101433.28
2022-10-29T22:52:07.316Z,101432.44
2022-10-29T22:55:10.327Z,101426.81
2022-10-29T22:58:13.845Z,101417.00
2022-10-29T23:01:22.854Z,101428.69
2022-10-29T23:04:29.606Z,101420.97
2022-10-29T23:10:40.008Z,101413.09
2022-10-29T23:13:43.630Z,101417.97
2022-10-29T23:16:46.043Z,101411.16
2022-10-29T23:19:48.551Z,101414.94
2022-10-29T23:22:52.188Z,101416.53
2022-10-29T23:26:00.519Z,101422.00
2022-10-29T23:29:03.980Z,101421.97
2022-10-29T23:32:06.531Z,101423.34
2022-10-29T23:35:09.865Z,101415.22
2022-10-29T23:38:13.615Z,101409.25
2022-10-29T23:41:16.085Z,101411.75
2022-10-29T23:44:18.536Z,101403.81
2022-10-29T23:47:21.157Z,101408.13
2022-10-29T23:50:24.135Z,101406.19
2022-10-29T23:53:27.470Z,101393.31
2022-10-29T23:56:30.033Z,101392.78
2022-10-29T23:59:33.469Z,101392.22
